Latest Weather Observations for Roseworthy

IDS60901

Issued at 8:51 pm CDT Thursday 23 March 2017 (issued every 10 minutes, with the page automatically refreshed every 10 minutes)

About weather observations | Map of Adelaide area stations | Latest observations for Adelaide area | Other Formats
Station Details ID: 023122 Name: ROSEWORTHY AWS Lat: -34.51 Lon: 138.68 Height: 65.0 m
Data from the previous 72 hours. | See also: Recent months at Roseworthy
Date/Time
CDT
Temp
°C
App
Temp
°C
Dew
Point
°C
Rel
Hum
%
Delta-T
°C
Wind Press
QNH
hPa
Press
MSL
hPa
Rain since
9am
mm
Dir  Spd
km/h
Gust
km/h
Spd
kts
Gust
kts
23/08:30pm 23.4 22.3 13.0 52 6.0 SE 11 15 6 8 1015.0 1014.8 0.0
23/08:00pm 24.7 23.2 13.0 48 6.8 SE 13 17 7 9 1014.6 1014.4 0.0
23/07:30pm 25.9 24.2 12.4 43 7.8 SE 13 20 7 11 1014.1 1013.9 0.0
23/07:00pm 27.3 25.0 11.7 37 9.0 ESE 15 22 8 12 1013.9 1013.7 0.0
23/06:30pm 28.5 25.4 11.6 35 9.8 ESE 19 28 10 15 1013.8 1013.6 0.0
23/06:00pm 28.9 26.1 11.5 34 10.1 SE 17 22 9 12 1013.7 1013.5 0.0
23/05:30pm 29.2 26.4 11.3 33 10.3 SE 17 26 9 14 1013.7 1013.5 0.0
23/05:00pm 29.2 27.3 11.7 34 10.2 SE 13 20 7 11 1013.8 1013.6 0.0
23/04:30pm 29.1 26.8 11.6 33 10.1 ESE 15 24 8 13 1013.9 1013.7 0.0
23/04:00pm 29.2 26.5 11.7 34 10.2 ESE 17 22 9 12 1013.9 1013.7 0.0
23/03:30pm 29.5 26.9 12.0 34 10.2 ESE 17 30 9 16 1014.1 1013.9 0.0
23/03:00pm 29.2 26.3 12.2 35 9.9 ESE 19 28 10 15 1014.2 1014.0 0.0
23/02:30pm 29.8 27.7 12.3 34 10.3 ESE 15 24 8 13 1014.4 1014.2 0.0
23/02:00pm 28.2 25.6 12.1 37 9.4 SE 17 24 9 13 1014.8 1014.6 0.0
23/01:30pm 27.3 25.9 12.1 39 8.8 SE 11 19 6 10 1015.4 1015.2 0.0
23/01:00pm 27.0 25.2 13.4 43 8.0 SE 15 22 8 12 1016.3 1016.1 0.0
23/12:30pm 25.2 23.5 12.4 45 7.4 SE 13 20 7 11 1016.9 1016.7 0.0
23/12:00pm 24.0 23.5 12.6 49 6.5 SE 7 22 4 12 1017.3 1017.1 0.0
23/11:30am 23.2 21.2 12.8 52 6.0 ESE 15 20 8 11 1017.8 1017.6 0.0
23/11:00am 22.7 21.0 12.6 53 5.8 ESE 13 20 7 11 1018.0 1017.8 0.0
23/10:30am 21.4 20.0 13.3 60 4.7 E 13 24 7 13 1017.9 1017.7 0.0
23/10:00am 20.4 19.1 12.6 61 4.4 SE 11 15 6 8 1017.9 1017.7 0.0
23/09:30am 19.0 17.9 13.0 68 3.4 SSW 11 15 6 8 1018.4 1018.2 0.0
23/09:00am 17.9 17.2 13.2 74 2.6 S 9 13 5 7 1018.1 1017.9 0.0
23/08:30am 17.1 16.8 13.2 78 2.2 SSE 7 11 4 6 1017.9 1017.7 0.0
23/08:00am 15.9 16.1 13.0 83 1.6 SE 4 7 2 4 1017.8 1017.6 0.0
23/07:30am 15.1 14.3 12.8 86 1.3 SE 9 11 5 6 1017.5 1017.3 0.0
23/07:00am 14.4 14.5 11.6 83 1.5 E 2 7 1 4 1017.2 1017.0 0.0
23/06:30am 14.6 13.5 12.1 85 1.4 SE 9 13 5 7 1016.9 1016.7 0.0
23/06:00am 15.4 13.4 12.7 84 1.5 SE 15 19 8 10 1016.6 1016.4 0.0
23/05:30am 15.8 14.2 12.9 83 1.6 ESE 13 19 7 10 1016.2 1016.0 0.0
23/05:00am 15.6 14.4 12.7 83 1.6 SE 11 17 6 9 1016.5 1016.3 0.0
23/04:30am 16.0 14.8 12.9 82 1.7 SE 11 15 6 8 1016.8 1016.6 0.0
23/04:00am 16.1 15.0 13.0 82 1.7 SE 11 15 6 8 1017.0 1016.8 0.0
23/03:30am 16.0 15.1 12.7 81 1.8 SE 9 13 5 7 1016.8 1016.6 0.0
23/03:00am 16.6 15.0 12.9 79 2.1 SE 13 19 7 10 1016.6 1016.4 0.0
23/02:30am 16.8 14.5 12.9 78 2.2 SE 17 22 9 12 1016.6 1016.4 0.0
23/02:00am 17.2 15.0 13.3 78 2.2 SE 17 26 9 14 1016.6 1016.4 0.0
23/01:30am 17.2 15.8 13.3 78 2.2 SSE 13 17 7 9 1016.9 1016.7 0.0
23/01:00am 17.1 15.6 13.2 78 2.2 SSE 13 15 7 8 1017.2 1017.0 0.0
23/12:30am 16.9 15.8 13.0 78 2.2 SSE 11 13 6 7 1017.5 1017.3 0.0
23/12:00am 16.7 15.1 12.8 78 2.2 S 13 15 7 8 1017.7 1017.5 0.0
 
Date/Time
CDT
Temp
°C
App
Temp
°C
Dew
Point
°C
Rel
Hum
%
Delta-T
°C
Wind Press
QNH
hPa
Press
MSL
hPa
Rain since
9am
mm
Dir  Spd
km/h
Gust
km/h
Spd
kts
Gust
kts
22/11:30pm 16.8 15.6 12.9 78 2.2 S 11 13 6 7 1017.7 1017.5 0.0
22/11:00pm 18.5 17.2 13.8 74 2.7 SSE 13 15 7 8 1017.5 1017.3 0.0
22/10:30pm 19.0 17.7 13.8 72 3.0 SSE 13 20 7 11 1017.5 1017.3 0.0
22/10:00pm 19.4 17.7 13.6 69 3.3 SE 15 22 8 12 1017.4 1017.2 0.0
22/09:30pm 19.9 18.3 13.8 68 3.5 SSE 15 20 8 11 1017.0 1016.8 0.0
22/09:00pm 20.7 19.4 13.6 64 4.1 SSE 13 20 7 11 1017.1 1016.9 0.0
22/08:30pm 21.0 18.9 13.7 63 4.2 SSE 17 24 9 13 1017.0 1016.8 0.0
22/08:00pm 21.3 18.6 13.0 59 4.7 SE 19 26 10 14 1016.6 1016.4 0.0
22/07:30pm 21.5 19.0 13.4 60 4.7 SE 19 32 10 17 1016.1 1015.9 0.0
22/07:00pm 21.7 18.9 13.3 59 4.8 SE 20 28 11 15 1016.0 1015.8 0.0
22/06:30pm 22.2 19.4 13.3 57 5.1 ESE 20 28 11 15 1015.8 1015.6 0.0
22/06:00pm 22.9 20.1 13.1 54 5.7 SE 20 32 11 17 1015.4 1015.2 0.0
22/05:30pm 23.1 20.3 13.3 54 5.7 SSE 20 28 11 15 1015.0 1014.8 0.0
22/05:00pm 23.1 20.0 13.3 54 5.7 SSE 22 32 12 17 1015.1 1014.9 0.0
22/04:30pm 23.2 19.7 13.4 54 5.7 SSE 24 33 13 18 1015.1 1014.9 0.0
22/04:00pm 25.1 22.0 14.6 52 6.3 SSE 24 35 13 19 1015.3 1015.1 0.0
22/03:30pm 24.2 21.2 13.7 52 6.2 SSE 22 33 12 18 1015.5 1015.3 0.0
22/03:00pm 24.2 22.2 16.5 62 4.7 SSE 22 32 12 17 1015.5 1015.3 0.0
22/02:30pm 23.5 21.3 14.8 58 5.2 SSE 20 28 11 15 1015.6 1015.4 0.0
22/02:00pm 22.8 20.2 13.8 57 5.3 SE 20 35 11 19 1015.9 1015.7 0.0
22/01:30pm 22.9 20.6 14.7 60 4.9 SSE 20 32 11 17 1016.3 1016.1 0.0
22/01:00pm 22.0 18.7 13.9 60 4.7 SE 24 32 13 17 1016.4 1016.2 0.0
22/12:30pm 21.2 18.7 14.1 64 4.1 SSE 20 28 11 15 1016.7 1016.5 0.0
22/12:00pm 20.9 18.7 14.3 66 3.8 SSE 19 24 10 13 1016.9 1016.7 0.0
22/11:30am 20.8 18.3 14.2 66 3.8 SSE 20 26 11 14 1016.9 1016.7 0.0
22/11:00am 20.9 18.4 14.1 65 4.0 SE 20 30 11 16 1017.2 1017.0 0.0
22/10:30am 20.7 17.8 14.1 66 3.8 SSE 22 28 12 15 1017.0 1016.8 0.0
22/10:00am 20.5 18.1 13.9 66 3.8 SE 19 24 10 13 1016.9 1016.7 0.0
22/09:30am 20.5 19.4 14.2 67 3.7 SSE 13 17 7 9 1016.6 1016.4 0.0
22/09:00am 19.8 17.5 14.2 70 3.2 SE 19 26 10 14 1016.2 1016.0 0.0
22/08:30am 19.5 17.3 14.3 72 3.0 SE 19 24 10 13 1015.5 1015.3 0.0
22/08:00am 19.3 17.1 14.3 73 2.9 SE 19 26 10 14 1015.1 1014.9 0.0
22/07:30am 19.1 17.9 14.1 73 2.9 SE 13 20 7 11 1014.7 1014.5 0.0
22/07:00am 19.0 16.8 14.3 74 2.7 SSE 19 24 10 13 1014.5 1014.3 0.0
22/06:30am 19.3 17.8 14.3 73 2.9 SSE 15 19 8 10 1014.3 1014.1 0.0
22/06:00am 19.4 17.1 14.6 74 2.8 SE 20 33 11 18 1013.9 1013.7 0.0
22/05:30am 19.3 17.2 14.6 74 2.7 SSE 19 24 10 13 1013.6 1013.4 0.0
22/05:00am 19.6 18.4 15.0 75 2.7 SSE 15 20 8 11 1013.2 1013.0 0.0
22/04:30am 19.3 19.0 15.4 78 2.3 SSE 11 15 6 8 1013.2 1013.0 0.0
22/04:00am 17.6 18.1 14.9 84 1.6 SE 6 9 3 5 1013.1 1012.9 0.0
22/03:30am 16.5 16.3 13.0 80 2.0 SE 6 7 3 4 1012.8 1012.6 0.0
22/03:00am 18.0 18.2 14.7 81 1.9 SSE 7 9 4 5 1012.7 1012.5 0.0
22/02:30am 19.2 18.4 15.1 77 2.4 SSE 13 19 7 10 1012.7 1012.5 0.0
22/02:00am 19.8 19.2 15.7 77 2.4 SE 13 24 7 13 1012.8 1012.6 0.0
22/01:30am 19.9 19.7 15.7 77 2.5 SE 11 20 6 11 1012.7 1012.5 0.0
22/01:00am 20.0 19.4 15.6 76 2.6 SE 13 20 7 11 1012.6 1012.4 0.0
22/12:30am 20.3 19.4 15.9 76 2.6 SE 15 20 8 11 1012.5 1012.3 0.0
22/12:00am 20.3 19.9 16.1 77 2.5 SE 13 20 7 11 1012.3 1012.1 0.0
 
Date/Time
CDT
Temp
°C
App
Temp
°C
Dew
Point
°C
Rel
Hum
%
Delta-T
°C
Wind Press
QNH
hPa
Press
MSL
hPa
Rain since
9am
mm
Dir  Spd
km/h
Gust
km/h
Spd
kts
Gust
kts
21/11:30pm 20.2 20.2 16.2 78 2.4 SE 11 17 6 9 1012.3 1012.1 0.0
21/11:00pm 20.5 20.1 16.1 76 2.6 SE 13 17 7 9 1012.1 1011.9 0.0
21/10:30pm 21.0 20.2 16.2 74 2.9 SSE 15 20 8 11 1012.0 1011.8 0.0
21/10:00pm 21.4 20.2 16.1 72 3.2 ESE 17 24 9 13 1011.8 1011.6 0.0
21/09:30pm 22.2 21.5 16.5 70 3.5 SE 15 19 8 10 1011.3 1011.1 0.0
21/09:00pm 20.2 20.8 15.2 73 3.0 ESE 6 9 3 5 1010.7 1010.5 0.0
21/08:30pm 22.3 23.1 17.2 73 3.1 SSW 9 11 5 6 1010.3 1010.1 0.0
21/08:00pm 23.7 24.1 17.2 67 4.0 SW 11 17 6 9 1009.7 1009.5 0.0
21/07:30pm 24.8 24.1 15.4 56 5.7 SW 13 17 7 9 1009.5 1009.3 0.0
21/07:00pm 26.6 25.5 15.3 50 6.9 WSW 15 19 8 10 1009.1 1008.9 0.0
21/06:30pm 27.6 26.1 15.3 47 7.5 W 17 22 9 12 1008.7 1008.5 0.0
21/06:00pm 28.7 26.4 15.6 45 8.1 W 22 28 12 15 1008.5 1008.3 0.0
21/05:30pm 28.1 25.4 15.7 46 7.6 WSW 24 33 13 18 1008.2 1008.0 0.0
21/05:00pm 30.7 29.9 13.9 36 10.2 NW 11 24 6 13 1007.9 1007.7 0.0
21/04:30pm 30.0 30.3 14.9 39 9.3 WNW 7 15 4 8 1008.1 1007.9 0.0
21/04:00pm 29.9 29.7 15.6 42 8.8 N 11 17 6 9 1008.2 1008.0 0.0
21/03:30pm 28.8 28.2 15.7 45 8.1 WNW 13 24 7 13 1008.6 1008.4 0.0
21/03:00pm 28.1 28.7 15.7 46 7.6 NE 7 20 4 11 1008.9 1008.7 0.0
21/02:30pm 27.4 27.5 16.4 51 6.8 N 11 20 6 11 1009.4 1009.2 0.0
21/02:00pm 27.9 28.2 17.1 51 6.8 N 11 24 6 13 1009.8 1009.6 0.0
21/01:30pm 27.9 27.7 16.8 50 6.9 NNE 13 20 7 11 1009.9 1009.7 0.0
21/01:00pm 26.4 26.3 16.9 56 5.9 N 13 20 7 11 1010.3 1010.1 0.0
21/12:30pm 26.6 26.5 18.7 62 5.1 NNE 17 20 9 11 1010.6 1010.4 0.0
21/12:00pm 23.9 25.0 17.9 69 3.8 N 9 17 5 9 1011.1 1010.9 0.0
21/11:30am 24.2 26.4 18.4 70 3.7 ENE 4 9 2 5 1011.1 1010.9 0.0
21/11:00am 22.6 24.0 17.9 75 2.9 NNW 7 11 4 6 1011.2 1011.0 0.0
21/10:30am 23.2 22.8 18.1 73 3.2 NNW 17 22 9 12 1010.9 1010.7 0.0
21/10:00am 22.2 22.7 18.4 79 2.4 N 13 19 7 10 1010.5 1010.3 0.0
21/09:30am 21.8 21.1 18.2 80 2.3 N 19 22 10 12 1010.0 1009.8 0.0
21/09:00am 20.7 20.0 18.3 86 1.5 N 19 24 10 13 1009.8 1009.6 0.0
21/08:30am 21.1 20.5 17.5 80 2.2 NNW 17 24 9 13 1009.6 1009.4 0.0
21/08:00am 20.0 20.3 15.0 73 2.9 NNE 7 9 4 5 1008.9 1008.7 0.0
21/07:30am 19.3 18.5 15.0 76 2.5 NE 13 15 7 8 1008.2 1008.0 0.0
21/07:00am 19.4 19.2 14.6 74 2.8 NE 9 11 5 6 1007.9 1007.7 0.0
21/06:30am 20.5 19.0 15.3 72 3.1 NNE 17 17 9 9 1007.6 1007.4 0.0
21/06:00am 20.1 19.7 14.2 69 3.4 NNE 9 11 5 6 1007.6 1007.4 0.0
21/05:30am 22.3 21.2 15.4 65 4.1 NW 15 22 8 12 1007.4 1007.2 0.0
21/05:00am 22.9 22.6 15.5 63 4.4 E 11 22 6 12 1006.8 1006.6 0.0
21/04:30am 22.8 21.8 15.6 64 4.3 E 15 19 8 10 1006.7 1006.5 0.0
21/04:00am 23.0 22.0 15.6 63 4.5 E 15 19 8 10 1006.8 1006.6 0.0
21/03:30am 23.4 22.4 15.5 61 4.8 E 15 20 8 11 1006.8 1006.6 0.0
21/03:00am 23.5 22.1 15.5 60 4.8 E 17 24 9 13 1007.1 1006.9 0.0
21/02:30am 23.1 21.2 15.2 61 4.7 E 19 24 10 13 1007.1 1006.9 0.0
21/02:00am 23.8 21.7 15.3 59 5.1 ESE 20 26 11 14 1007.2 1007.0 0.0
21/01:30am 24.2 22.3 15.1 56 5.5 ESE 19 26 10 14 1007.6 1007.4 0.0
21/01:00am 24.7 22.6 15.1 55 5.8 E 20 28 11 15 1008.0 1007.8 0.0
21/12:30am 25.3 22.0 15.0 53 6.2 E 26 37 14 20 1008.0 1007.8 0.0
21/12:00am 25.1 22.3 15.4 55 5.9 E 24 32 13 17 1008.2 1008.0 0.0
 
Date/Time
CDT
Temp
°C
App
Temp
°C
Dew
Point
°C
Rel
Hum
%
Delta-T
°C
Wind Press
QNH
hPa
Press
MSL
hPa
Rain since
9am
mm
Dir  Spd
km/h
Gust
km/h
Spd
kts
Gust
kts
20/11:30pm 24.7 24.2 15.9 58 5.4 ESE 13 24 7 13 1008.7 1008.5 0.0
20/11:00pm 24.7 23.2 16.2 59 5.2 E 19 22 10 12 1008.9 1008.7 0.0
20/10:30pm 25.2 23.6 16.4 58 5.4 E 20 26 11 14 1009.1 1008.9 0.0
20/10:00pm 25.5 23.3 16.9 59 5.3 ESE 24 35 13 19 1009.3 1009.1 0.0
20/09:30pm 25.3 22.6 17.5 62 4.9 ESE 28 37 15 20 1009.0 1008.8 0.0
20/09:00pm 25.6 24.0 17.5 61 5.1 ESE 22 37 12 20 1008.8 1008.6 0.0

Latest Capital City Observations: Canberra | Sydney | Melbourne | Brisbane | Adelaide | Perth | Hobart | Darwin

Other Formats:

Comma delimited format used in spreadsheet applications
http://www.bom.gov.au/fwo/IDS60901/IDS60901.95671.axf

JavaScript Object Notation format (JSON) in row-major order
http://www.bom.gov.au/fwo/IDS60901/IDS60901.95671.json